createdAt,value
2022-08-04T00:01:28.737Z,29.70
2022-08-04T00:03:58.601Z,29.70
2022-08-04T00:06:31.114Z,29.80
2022-08-04T00:08:59.668Z,29.90
2022-08-04T00:11:28.125Z,29.80
2022-08-04T00:14:14.294Z,29.90
2022-08-04T00:16:41.664Z,29.90
2022-08-04T00:19:19.140Z,29.90
2022-08-04T00:21:47.558Z,29.90
2022-08-04T00:24:14.679Z,29.90
2022-08-04T00:26:41.893Z,29.80
2022-08-04T00:29:09.110Z,29.80
2022-08-04T00:31:56.137Z,29.80
2022-08-04T00:34:27.330Z,29.70
2022-08-04T00:36:55.415Z,29.70
2022-08-04T00:39:22.892Z,29.70
2022-08-04T00:42:08.961Z,29.80
2022-08-04T00:44:40.046Z,29.60
2022-08-04T00:47:17.581Z,29.50
2022-08-04T00:49:53.886Z,29.70
2022-08-04T00:52:32.205Z,29.80
2022-08-04T00:55:09.282Z,29.80
2022-08-04T00:57:54.836Z,29.80
2022-08-04T01:00:21.995Z,29.70
2022-08-04T01:03:04.680Z,29.70
2022-08-04T01:05:39.202Z,29.50
2022-08-04T01:08:19.077Z,29.60
2022-08-04T01:11:18.956Z,29.50
2022-08-04T01:14:19.220Z,29.30
2022-08-04T01:17:15.994Z,29.10
2022-08-04T01:20:02.118Z,28.90
2022-08-04T01:22:34.767Z,29.00
2022-08-04T01:25:32.583Z,28.80
2022-08-04T01:28:08.709Z,28.70
2022-08-04T01:30:36.888Z,28.60
2022-08-04T01:33:05.079Z,28.40
2022-08-04T01:35:47.481Z,28.40
2022-08-04T01:38:26.112Z,28.10
2022-08-04T01:40:54.375Z,28.20
2022-08-04T01:43:21.545Z,28.30
2022-08-04T01:45:53.064Z,28.40
2022-08-04T01:49:07.517Z,28.20
2022-08-04T01:54:27.861Z,26.80
2022-08-04T01:57:00.079Z,26.60
2022-08-04T01:59:51.148Z,26.70
2022-08-04T02:02:41.118Z,26.90
2022-08-04T02:05:20.749Z,27.20
2022-08-04T02:08:10.889Z,27.30
2022-08-04T02:10:47.112Z,27.50
2022-08-04T02:13:38.566Z,27.60
2022-08-04T02:16:45.360Z,27.70
2022-08-04T02:19:50.190Z,27.70
2022-08-04T02:22:17.814Z,27.80
2022-08-04T02:24:52.696Z,27.70
2022-08-04T02:27:21.675Z,27.80
2022-08-04T02:29:54.716Z,27.80
2022-08-04T02:32:25.877Z,27.80
2022-08-04T02:35:04.568Z,27.50
2022-08-04T02:37:32.174Z,27.30
2022-08-04T02:39:59.887Z,27.10
2022-08-04T02:42:28.995Z,26.90
2022-08-04T02:44:57.388Z,27.00
2022-08-04T02:48:29.593Z,26.90
2022-08-04T02:50:12.629Z,26.90
2022-08-04T02:52:39.785Z,26.90
2022-08-04T02:55:07.034Z,27.10
2022-08-04T02:57:34.200Z,27.10
2022-08-04T03:00:13.089Z,27.00
2022-08-04T03:02:46.261Z,26.90
2022-08-04T03:05:14.726Z,26.90
2022-08-04T03:07:56.069Z,26.80
2022-08-04T03:10:30.645Z,26.80
2022-08-04T03:13:05.882Z,26.70
2022-08-04T03:15:47.338Z,26.90
2022-08-04T03:18:14.535Z,27.20
2022-08-04T03:21:00.463Z,27.30
2022-08-04T03:23:33.720Z,27.20
2022-08-04T03:26:15.181Z,27.00
2022-08-04T03:28:58.882Z,26.90
2022-08-04T03:31:43.634Z,26.90
2022-08-04T03:34:22.903Z,26.90
2022-08-04T03:36:56.155Z,26.90
2022-08-04T03:39:42.004Z,26.80
2022-08-04T03:42:16.147Z,26.60
2022-08-04T03:44:43.312Z,26.70
2022-08-04T03:47:28.770Z,26.90
2022-08-04T03:50:14.817Z,26.70
2022-08-04T03:53:09.399Z,26.80
2022-08-04T03:55:45.510Z,26.90
2022-08-04T03:58:33.952Z,27.00
2022-08-04T04:01:30.782Z,26.90
2022-08-04T04:04:30.096Z,26.90
2022-08-04T04:07:12.210Z,26.90
2022-08-04T04:09:50.636Z,27.00
2022-08-04T04:12:42.914Z,27.00
2022-08-04T04:15:28.854Z,27.10
2022-08-04T04:18:31.476Z,27.10
2022-08-04T04:21:07.465Z,27.00
2022-08-04T04:23:51.867Z,26.90
2022-08-04T04:26:25.920Z,26.70
2022-08-04T04:28:57.793Z,26.80
2022-08-04T04:31:27.569Z,26.80
2022-08-04T04:33:54.674Z,26.80
2022-08-04T04:36:35.598Z,26.80
2022-08-04T04:39:09.210Z,26.90
2022-08-04T04:41:40.476Z,26.80
2022-08-04T04:44:30.568Z,26.80
2022-08-04T04:47:09.390Z,26.90
2022-08-04T04:49:36.502Z,26.90
2022-08-04T04:52:06.826Z,27.00
2022-08-04T04:54:53.541Z,27.10
2022-08-04T04:57:51.918Z,27.10
2022-08-04T05:00:10.211Z,26.80
2022-08-04T05:03:00.437Z,26.90
2022-08-04T05:05:37.537Z,27.10
2022-08-04T05:08:43.820Z,27.10
2022-08-04T05:11:13.067Z,27.10
2022-08-04T05:14:38.496Z,26.60
2022-08-04T05:16:39.932Z,26.40
2022-08-04T05:19:10.109Z,26.60
2022-08-04T05:21:43.038Z,26.60
2022-08-04T05:24:10.868Z,26.10
2022-08-04T05:26:41.048Z,25.90
2022-08-04T05:29:09.827Z,25.60
2022-08-04T05:31:38.152Z,25.40
2022-08-04T05:34:09.503Z,25.80
2022-08-04T05:36:41.941Z,25.90
2022-08-04T05:39:22.445Z,26.20
2022-08-04T05:41:55.595Z,26.10
2022-08-04T05:44:26.385Z,26.10
2022-08-04T05:46:55.404Z,26.70
2022-08-04T05:49:28.893Z,27.10
2022-08-04T05:51:57.428Z,27.20
2022-08-04T05:54:24.661Z,27.00
2022-08-04T05:56:51.885Z,26.70
2022-08-04T05:59:19.351Z,26.40
2022-08-04T06:01:55.443Z,26.50
2022-08-04T06:04:42.536Z,26.70
2022-08-04T06:07:11.313Z,26.70
2022-08-04T06:09:38.485Z,26.60
2022-08-04T06:12:07.363Z,26.80
2022-08-04T06:14:40.942Z,26.60
2022-08-04T06:19:56.151Z,26.60
2022-08-04T06:20:00.174Z,26.80
2022-08-04T06:22:43.403Z,26.90
2022-08-04T06:25:12.022Z,26.80
2022-08-04T06:27:39.212Z,26.90
2022-08-04T06:30:10.139Z,27.10
2022-08-04T06:32:47.261Z,27.00
2022-08-04T06:35:18.007Z,27.20
2022-08-04T06:37:48.789Z,27.50
2022-08-04T06:40:30.665Z,27.50
2022-08-04T06:43:03.229Z,27.70
2022-08-04T06:45:30.519Z,27.80
2022-08-04T06:47:57.716Z,28.10
2022-08-04T06:51:27.744Z,28.40
2022-08-04T06:53:12.123Z,28.50
2022-08-04T06:55:39.606Z,28.80
2022-08-04T06:58:06.756Z,28.80
2022-08-04T07:00:35.685Z,28.60
2022-08-04T07:03:02.828Z,28.60
2022-08-04T07:05:30.158Z,28.90
2022-08-04T07:07:58.784Z,29.20
2022-08-04T07:10:29.467Z,29.40
2022-08-04T07:12:57.048Z,29.40
2022-08-04T07:15:24.456Z,29.30
2022-08-04T07:17:52.846Z,29.40
2022-08-04T07:20:34.928Z,29.80
2022-08-04T07:23:04.367Z,29.90
2022-08-04T07:25:59.842Z,30.10
2022-08-04T07:28:19.523Z,29.90
2022-08-04T07:30:47.772Z,30.10
2022-08-04T07:33:16.093Z,30.20
2022-08-04T07:36:09.113Z,29.90
2022-08-04T07:38:30.841Z,30.10
2022-08-04T07:40:59.984Z,30.00
2022-08-04T07:43:27.625Z,30.30
2022-08-04T07:45:54.865Z,30.70
2022-08-04T07:48:24.284Z,31.30
2022-08-04T07:50:51.476Z,31.10
2022-08-04T07:53:54.599Z,32.60
2022-08-04T07:56:08.123Z,34.10
2022-08-04T07:58:38.437Z,34.30
2022-08-04T08:01:29.793Z,34.00
2022-08-04T08:04:17.609Z,33.90
2022-08-04T08:06:53.899Z,33.60
2022-08-04T08:09:36.326Z,34.80
2022-08-04T08:12:35.576Z,34.20
2022-08-04T08:15:11.326Z,33.60
2022-08-04T08:17:58.158Z,34.90
2022-08-04T08:20:35.986Z,33.30
2022-08-04T08:23:11.999Z,34.00
2022-08-04T08:45:37.333Z,36.20
2022-08-04T08:51:09.562Z,35.40
2022-08-04T08:53:45.367Z,35.70
2022-08-04T08:56:18.738Z,34.80
2022-08-04T08:58:59.761Z,34.50
2022-08-04T09:01:45.780Z,36.00
2022-08-04T09:04:23.729Z,35.90
2022-08-04T09:07:00.877Z,36.00
2022-08-04T09:09:29.915Z,36.80
2022-08-04T09:12:07.446Z,35.20
2022-08-04T09:14:43.718Z,35.60
2022-08-04T09:17:19.334Z,35.90
2022-08-04T09:19:50.568Z,36.80
2022-08-04T09:22:22.311Z,35.80
2022-08-04T09:24:54.319Z,34.60
2022-08-04T09:27:28.584Z,35.90
2022-08-04T09:30:06.072Z,36.40
2022-08-04T09:32:39.342Z,36.40
2022-08-04T09:35:15.573Z,35.30
2022-08-04T09:37:48.834Z,35.60
2022-08-04T09:40:53.188Z,35.70
2022-08-04T09:43:59.174Z,34.30
2022-08-04T09:46:47.689Z,34.50
2022-08-04T09:49:16.465Z,35.00
2022-08-04T09:51:57.875Z,35.30
2022-08-04T09:54:38.729Z,33.80
2022-08-04T09:57:05.932Z,34.60
2022-08-04T09:59:51.977Z,34.00
2022-08-04T10:02:19.298Z,33.70
2022-08-04T10:04:46.713Z,34.40
2022-08-04T10:07:32.634Z,34.50
2022-08-04T10:10:18.055Z,34.10
2022-08-04T10:13:03.620Z,34.90
2022-08-04T10:15:35.722Z,34.80
2022-08-04T10:18:09.366Z,35.00
2022-08-04T10:20:46.033Z,35.60
2022-08-04T10:23:27.433Z,34.60
2022-08-04T10:26:05.332Z,35.00
2022-08-04T10:28:43.475Z,35.60
2022-08-04T10:31:11.915Z,35.80
2022-08-04T10:33:48.279Z,36.00
2022-08-04T10:36:17.598Z,35.30
2022-08-04T10:39:03.749Z,35.00
2022-08-04T10:41:35.943Z,34.50
2022-08-04T10:44:13.732Z,35.10
2022-08-04T10:46:46.679Z,35.10
2022-08-04T10:49:15.165Z,34.50
2022-08-04T10:51:58.787Z,35.20
2022-08-04T10:54:47.427Z,35.50
2022-08-04T10:57:16.561Z,35.90
2022-08-04T10:59:46.114Z,35.60
2022-08-04T11:02:20.788Z,36.10
2022-08-04T11:04:49.041Z,36.20
2022-08-04T11:07:16.621Z,36.50
2022-08-04T11:09:44.098Z,36.70
2022-08-04T11:12:15.648Z,36.70
2022-08-04T11:14:58.905Z,35.90
2022-08-04T11:17:51.117Z,36.30
2022-08-04T11:27:57.686Z,36.30
2022-08-04T11:42:38.260Z,37.50
2022-08-04T11:45:13.525Z,37.60
2022-08-04T11:48:01.920Z,37.80
2022-08-04T11:50:33.891Z,37.60
2022-08-04T11:53:01.385Z,37.80
2022-08-04T11:55:28.661Z,37.90
2022-08-04T11:57:55.860Z,37.90
2022-08-04T12:00:23.031Z,38.00
2022-08-04T12:03:02.574Z,38.10
2022-08-04T12:05:37.790Z,38.10
2022-08-04T12:08:22.333Z,38.10
2022-08-04T12:11:09.757Z,37.80
2022-08-04T12:13:48.245Z,37.50
2022-08-04T12:16:16.233Z,37.80
2022-08-04T12:18:54.285Z,37.90
2022-08-04T12:21:34.661Z,38.30
2022-08-04T12:24:02.994Z,38.30
2022-08-04T12:26:35.379Z,37.90
2022-08-04T12:29:11.136Z,36.50
2022-08-04T12:31:42.428Z,36.70
2022-08-04T12:34:13.369Z,37.10
2022-08-04T12:36:43.811Z,37.70
2022-08-04T12:39:14.095Z,38.10
2022-08-04T12:42:07.488Z,38.40
2022-08-04T12:44:37.600Z,37.80
2022-08-04T12:47:27.379Z,38.40
2022-08-04T12:50:00.254Z,37.80
2022-08-04T12:55:17.377Z,38.60
2022-08-04T12:57:44.650Z,39.20
2022-08-04T13:00:12.034Z,39.40
2022-08-04T13:02:41.921Z,39.70
2022-08-04T13:05:09.735Z,40.00
2022-08-04T13:07:46.193Z,40.20
2022-08-04T13:10:17.589Z,40.50
2022-08-04T13:13:01.623Z,40.80
2022-08-04T13:15:29.144Z,40.80
2022-08-04T13:18:00.577Z,40.90
2022-08-04T13:20:29.331Z,41.00
2022-08-04T13:23:00.526Z,40.20
2022-08-04T13:26:42.490Z,40.50
2022-08-04T13:28:16.986Z,40.60
2022-08-04T13:30:45.432Z,40.80
2022-08-04T13:33:13.761Z,40.60
2022-08-04T13:35:54.633Z,40.60
2022-08-04T13:38:23.380Z,40.40
2022-08-04T13:40:50.548Z,39.60
2022-08-04T13:44:16.921Z,40.60
2022-08-04T13:46:50.502Z,40.80
2022-08-04T13:49:54.108Z,40.90
2022-08-04T13:52:10.838Z,40.60
2022-08-04T13:54:42.922Z,40.90
2022-08-04T13:57:11.687Z,40.20
2022-08-04T13:59:38.898Z,40.50
2022-08-04T14:02:08.447Z,40.50
2022-08-04T14:04:38.841Z,40.40
2022-08-04T14:07:18.017Z,40.20
2022-08-04T14:10:04.810Z,40.40
2022-08-04T14:16:29.182Z,40.90
2022-08-04T14:19:43.146Z,41.20
2022-08-04T14:30:09.155Z,41.20
2022-08-04T14:32:26.071Z,40.80
2022-08-04T14:34:53.727Z,40.40
2022-08-04T14:37:22.616Z,40.40
2022-08-04T14:40:18.834Z,40.20
2022-08-04T14:42:55.530Z,40.30
2022-08-04T14:45:30.681Z,40.10
2022-08-04T14:47:57.961Z,39.80
2022-08-04T14:50:33.393Z,40.20
2022-08-04T14:53:11.268Z,40.80
2022-08-04T14:55:39.074Z,40.20
2022-08-04T14:58:36.816Z,40.00
2022-08-04T15:00:55.667Z,40.80
2022-08-04T15:03:22.959Z,40.30
2022-08-04T15:06:01.699Z,40.90
2022-08-04T15:08:32.984Z,41.40
2022-08-04T15:11:02.586Z,42.00
2022-08-04T15:13:30.735Z,42.00
2022-08-04T15:16:06.322Z,42.50
2022-08-04T15:18:36.323Z,43.20
2022-08-04T15:21:04.588Z,43.60
2022-08-04T15:23:38.783Z,43.80
2022-08-04T15:26:12.447Z,43.60
2022-08-04T15:28:40.494Z,43.40
2022-08-04T15:31:10.672Z,42.40
2022-08-04T15:33:57.868Z,42.80
2022-08-04T15:36:25.040Z,42.90
2022-08-04T15:39:11.167Z,42.00
2022-08-04T15:41:46.296Z,42.10
2022-08-04T15:44:41.029Z,43.00
2022-08-04T15:47:12.180Z,43.30
2022-08-04T15:49:40.695Z,43.40
2022-08-04T15:52:12.248Z,43.60
2022-08-04T15:54:52.087Z,43.60
2022-08-04T15:57:40.024Z,43.60
2022-08-04T16:00:14.297Z,43.40
2022-08-04T16:02:43.676Z,42.90
2022-08-04T16:05:17.976Z,42.10
2022-08-04T16:08:04.644Z,42.30
2022-08-04T16:10:32.606Z,42.10
2022-08-04T16:13:06.831Z,41.70
2022-08-04T16:15:38.021Z,41.60
2022-08-04T16:18:05.269Z,41.20
2022-08-04T16:20:32.500Z,40.60
2022-08-04T16:23:31.689Z,40.00
2022-08-04T16:26:04.063Z,39.50
2022-08-04T16:28:41.281Z,39.00
2022-08-04T16:31:11.786Z,38.60
2022-08-04T16:33:43.589Z,38.90
2022-08-04T16:36:12.197Z,38.70
2022-08-04T16:39:00.233Z,38.50
2022-08-04T16:41:43.173Z,38.40
2022-08-04T16:44:51.789Z,38.50
2022-08-04T16:47:22.473Z,38.40
2022-08-04T16:50:00.905Z,38.20
2022-08-04T16:52:30.428Z,38.20
2022-08-04T16:55:07.152Z,38.10
2022-08-04T16:57:46.296Z,38.10
2022-08-04T17:03:12.628Z,38.00
2022-08-04T17:05:40.483Z,37.90
2022-08-04T17:08:29.249Z,37.90
2022-08-04T17:10:55.674Z,37.80
2022-08-04T17:14:02.266Z,37.70
2022-08-04T17:16:23.559Z,37.80
2022-08-04T17:18:51.927Z,37.80
2022-08-04T17:21:20.613Z,37.70
2022-08-04T17:24:14.514Z,37.30
2022-08-04T17:26:40.498Z,36.80
2022-08-04T17:29:08.955Z,36.70
2022-08-04T17:31:37.935Z,36.60
2022-08-04T17:34:15.668Z,36.30
2022-08-04T17:36:43.859Z,36.10
2022-08-04T17:39:16.730Z,35.80
2022-08-04T17:41:49.026Z,35.70
2022-08-04T17:44:16.749Z,35.40
2022-08-04T17:46:45.604Z,35.20
2022-08-04T17:49:19.064Z,35.00
2022-08-04T17:52:06.564Z,34.90
2022-08-04T17:54:37.248Z,34.90
2022-08-04T17:57:06.666Z,34.90
2022-08-04T17:59:55.517Z,34.90
2022-08-04T18:02:23.748Z,34.80
2022-08-04T18:05:07.314Z,34.80
2022-08-04T18:08:35.316Z,34.90
2022-08-04T18:10:54.209Z,35.10
2022-08-04T18:13:26.833Z,35.20
2022-08-04T18:16:02.417Z,35.30
2022-08-04T18:18:30.123Z,35.40
2022-08-04T18:20:59.845Z,35.30
2022-08-04T18:23:32.111Z,35.50
2022-08-04T18:26:02.151Z,35.50
2022-08-04T18:28:33.193Z,35.40
2022-08-04T18:31:01.694Z,35.40
2022-08-04T18:33:40.419Z,35.40
2022-08-04T18:36:33.869Z,35.30
2022-08-04T18:38:59.035Z,35.20
2022-08-04T18:41:27.591Z,34.70
2022-08-04T18:43:56.866Z,34.20
2022-08-04T18:46:27.303Z,34.60
2022-08-04T18:48:54.614Z,34.40
2022-08-04T18:51:25.172Z,34.30
2022-08-04T18:53:58.937Z,34.00
2022-08-04T18:56:32.539Z,33.60
2022-08-04T18:59:00.934Z,33.30
2022-08-04T19:01:30.356Z,33.20
2022-08-04T19:09:52.193Z,33.10
2022-08-04T19:12:26.895Z,33.10
2022-08-04T19:17:54.149Z,33.20
2022-08-04T19:20:25.969Z,33.00
2022-08-04T19:24:27.517Z,33.10
2022-08-04T19:26:02.081Z,32.70
2022-08-04T19:28:30.147Z,32.60
2022-08-04T19:31:01.944Z,33.00
2022-08-04T19:33:55.217Z,33.20
2022-08-04T19:36:17.282Z,33.10
2022-08-04T19:38:44.778Z,32.80
2022-08-04T19:41:14.338Z,32.40
2022-08-04T19:43:43.831Z,32.30
2022-08-04T19:46:12.258Z,32.30
2022-08-04T19:48:40.001Z,32.50
2022-08-04T19:53:59.400Z,32.20
2022-08-04T19:56:40.208Z,32.20
2022-08-04T19:59:09.202Z,32.20
2022-08-04T20:01:44.836Z,32.00
2022-08-04T20:04:13.692Z,32.10
2022-08-04T20:06:40.958Z,31.90
2022-08-04T20:09:16.937Z,31.80
2022-08-04T20:11:56.954Z,31.40
2022-08-04T20:14:32.216Z,31.40
2022-08-04T20:17:01.075Z,31.20
2022-08-04T20:19:28.242Z,30.90
2022-08-04T20:21:58.001Z,30.80
2022-08-04T20:24:40.299Z,30.80
2022-08-04T20:27:14.563Z,30.90
2022-08-04T20:29:48.747Z,31.20
2022-08-04T20:32:21.870Z,31.30
2022-08-04T20:34:53.461Z,31.50
2022-08-04T20:37:22.988Z,31.50
2022-08-04T20:39:57.330Z,31.50
2022-08-04T20:42:27.575Z,31.30
2022-08-04T20:45:01.349Z,31.30
2022-08-04T20:47:31.168Z,31.20
2022-08-04T20:50:08.752Z,31.20
2022-08-04T20:52:37.254Z,31.20
2022-08-04T20:55:05.695Z,31.10
2022-08-04T20:57:48.247Z,31.00
2022-08-04T21:00:17.767Z,31.00
2022-08-04T21:02:58.211Z,31.00
2022-08-04T21:05:26.420Z,31.00
2022-08-04T21:07:56.750Z,31.10
2022-08-04T21:10:24.390Z,30.60
2022-08-04T21:12:53.507Z,30.30
2022-08-04T21:15:25.484Z,30.80
2022-08-04T21:17:57.600Z,31.10
2022-08-04T21:20:30.222Z,30.30
2022-08-04T21:23:02.206Z,30.80
2022-08-04T21:25:30.848Z,30.60
2022-08-04T21:30:52.786Z,30.90
2022-08-04T21:33:22.210Z,31.20
2022-08-04T21:35:53.949Z,30.80
2022-08-04T21:38:21.937Z,30.90
2022-08-04T21:40:55.826Z,30.40
2022-08-04T21:43:27.034Z,30.00
2022-08-04T21:45:54.710Z,30.50
2022-08-04T21:48:21.966Z,30.70
2022-08-04T21:50:50.505Z,30.30
2022-08-04T21:53:19.663Z,29.90
2022-08-04T21:56:05.146Z,29.90
2022-08-04T21:58:34.685Z,30.00
2022-08-04T22:01:13.183Z,30.00
2022-08-04T22:03:52.824Z,29.90
2022-08-04T22:06:28.719Z,29.80
2022-08-04T22:08:56.608Z,29.60
2022-08-04T22:11:48.494Z,29.60
2022-08-04T22:14:17.912Z,29.40
2022-08-04T22:16:56.754Z,29.30
2022-08-04T22:19:39.992Z,29.20
2022-08-04T22:22:12.690Z,29.20
2022-08-04T22:24:52.087Z,29.10
2022-08-04T22:27:38.024Z,29.00
2022-08-04T22:30:16.783Z,29.00
2022-08-04T22:32:46.289Z,29.00
2022-08-04T22:35:35.506Z,28.80
2022-08-04T22:38:07.806Z,28.70
2022-08-04T22:40:49.969Z,28.60
2022-08-04T22:43:32.881Z,28.60
2022-08-04T22:46:03.924Z,28.70
2022-08-04T22:48:33.040Z,28.80
2022-08-04T22:51:00.703Z,28.90
2022-08-04T22:53:28.031Z,29.10
2022-08-04T22:56:06.739Z,29.50
2022-08-04T22:58:37.000Z,30.00
2022-08-04T23:01:08.475Z,29.80
2022-08-04T23:03:36.421Z,29.70
2022-08-04T23:06:11.014Z,29.70
2022-08-04T23:08:43.077Z,29.10
2022-08-04T23:11:13.573Z,29.20
2022-08-04T23:13:42.090Z,29.00
2022-08-04T23:16:09.887Z,28.60
2022-08-04T23:18:40.221Z,29.20
2022-08-04T23:21:09.812Z,29.40
2022-08-04T23:23:45.175Z,29.60
2022-08-04T23:26:15.253Z,29.90
2022-08-04T23:28:42.722Z,30.00
2022-08-04T23:31:10.095Z,29.80
2022-08-04T23:33:49.097Z,29.70
2022-08-04T23:36:18.269Z,29.70
2022-08-04T23:38:45.990Z,30.00
2022-08-04T23:41:15.072Z,29.70
2022-08-04T23:43:55.071Z,29.40
2022-08-04T23:46:22.947Z,29.40
2022-08-04T23:48:51.965Z,29.50
2022-08-04T23:51:19.454Z,29.40
2022-08-04T23:54:02.447Z,29.30
2022-08-04T23:56:32.796Z,29.10
2022-08-04T23:59:02.685Z,29.10
